Time;durP1;ratioP1;P1;durP2;ratioP2;P2;SDS_P1;SDS_P2;PMS_P1;PMS_P2;Temp;Humidity;BMP_temperature;BMP_pressure;BME280_temperature;BME280_humidity;BME280_pressure;Samples;Min_cycle;Max_cycle;Signal;HPM_P1;HPM_P2
2023/12/05 00:00:24;;;;;;;2.28;0.70;;;10.80;72.90;;;;;;2340769;55;21045;-70
2023/12/05 00:02:57;;;;;;;1.27;0.60;;;10.80;72.80;;;;;;2318089;54;20944;-68
2023/12/05 00:05:25;;;;;;;1.20;0.60;;;10.80;72.80;;;;;;2554333;53;21018;-68
2023/12/05 00:07:51;;;;;;;1.77;0.60;;;10.90;72.90;;;;;;2328022;54;21029;-67
2023/12/05 00:10:18;;;;;;;1.73;0.73;;;10.90;72.80;;;;;;2339835;55;20964;-71
2023/12/05 00:12:45;;;;;;;1.90;0.77;;;10.90;72.70;;;;;;2561468;53;22087;-68
2023/12/05 00:15:12;;;;;;;1.62;0.70;;;10.90;72.60;;;;;;2317477;54;21019;-71
2023/12/05 00:17:38;;;;;;;1.83;0.80;;;10.90;72.40;;;;;;2572119;53;20945;-69
2023/12/05 00:20:24;;;;;;;3.92;0.90;;;11.00;72.50;;;;;;2582867;53;21004;-69
2023/12/05 00:22:52;;;;;;;2.30;0.80;;;11.00;71.70;;;;;;2338834;54;20965;-71
2023/12/05 00:25:18;;;;;;;2.05;0.80;;;11.10;72.40;;;;;;2325251;54;21480;-68
2023/12/05 00:27:50;;;;;;;1.95;0.80;;;11.00;72.90;;;;;;2546171;53;21055;-71
2023/12/05 00:31:03;;;;;;;1.60;0.70;;;11.00;72.10;;;;;;2582189;53;20937;-68
2023/12/05 00:33:31;;;;;;;2.17;0.90;;;11.10;71.50;;;;;;2578384;53;20909;-68
2023/12/05 00:35:57;;;;;;;3.10;1.20;;;11.10;72.00;;;;;;2317705;54;21382;-67
2023/12/05 00:38:24;;;;;;;2.47;0.90;;;11.10;71.90;;;;;;2583506;53;21000;-68
2023/12/05 00:40:50;;;;;;;2.22;0.90;;;11.10;71.90;;;;;;2339493;55;20976;-68
2023/12/05 00:43:16;;;;;;;1.87;0.70;;;11.10;71.80;;;;;;2337200;55;22007;-69
2023/12/05 00:45:42;;;;;;;1.58;0.70;;;11.10;71.80;;;;;;2323732;54;21016;-69
2023/12/05 00:48:09;;;;;;;1.80;0.60;;;11.10;71.70;;;;;;2342478;55;21685;-70
2023/12/05 00:50:38;;;;;;;2.10;0.75;;;11.10;71.70;;;;;;2315707;54;21011;-68
2023/12/05 00:53:09;;;;;;;1.75;0.65;;;11.00;71.60;;;;;;2583856;53;20981;-70
2023/12/05 00:55:35;;;;;;;1.73;0.60;;;11.00;71.60;;;;;;2339939;54;21015;-69
2023/12/05 00:58:02;;;;;;;2.08;0.70;;;11.10;71.60;;;;;;2342160;55;21035;-67
2023/12/05 01:00:30;;;;;;;2.00;0.52;;;11.00;71.50;;;;;;2342603;54;21948;-69
2023/12/05 01:03:27;;;;;;;1.85;0.70;;;11.10;71.60;;;;;;2564054;53;21008;-69
2023/12/05 01:05:54;;;;;;;2.33;0.62;;;11.00;71.00;;;;;;2579619;53;20964;-70
2023/12/05 01:08:23;;;;;;;1.77;0.80;;;11.00;71.40;;;;;;2585258;53;21161;-70
2023/12/05 01:10:50;;;;;;;2.00;0.70;;;11.00;71.40;;;;;;2341241;54;21740;-70
2023/12/05 01:13:16;;;;;;;1.70;0.70;;;11.00;71.50;;;;;;2336184;55;21810;-69
2023/12/05 01:15:45;;;;;;;2.05;0.52;;;11.00;71.50;;;;;;2337044;54;21003;-68
2023/12/05 01:18:14;;;;;;;1.67;0.65;;;11.00;71.50;;;;;;2552778;53;20980;-68
2023/12/05 01:20:40;;;;;;;1.67;0.60;;;11.00;71.40;;;;;;2320084;54;20948;-70
2023/12/05 01:23:07;;;;;;;1.55;0.65;;;11.00;71.50;;;;;;2552375;53;20952;-69
2023/12/05 01:25:33;;;;;;;1.27;0.50;;;11.00;71.40;;;;;;2338779;55;20968;-68
2023/12/05 01:28:02;;;;;;;1.48;0.52;;;11.00;71.40;;;;;;2341634;54;20952;-69
2023/12/05 01:30:29;;;;;;;1.42;0.60;;;11.00;71.40;;;;;;2340014;55;21083;-68
2023/12/05 01:32:56;;;;;;;1.37;0.50;;;11.00;71.40;;;;;;2320648;54;20944;-68
2023/12/05 01:35:22;;;;;;;1.25;0.50;;;11.00;71.40;;;;;;2335870;55;20939;-69
2023/12/05 01:37:53;;;;;;;1.92;0.70;;;11.00;71.40;;;;;;2582785;53;20948;-68
2023/12/05 01:40:29;;;;;;;2.28;0.70;;;10.90;71.30;;;;;;2319116;54;21031;-68
2023/12/05 01:42:55;;;;;;;1.85;0.60;;;10.90;71.30;;;;;;2340296;55;21548;-69
2023/12/05 01:45:22;;;;;;;2.33;0.60;;;10.90;71.40;;;;;;2582529;53;20960;-71
2023/12/05 01:47:48;;;;;;;2.05;0.70;;;10.90;71.30;;;;;;2585035;53;20996;-67
2023/12/05 01:50:21;;;;;;;1.95;0.50;;;10.90;71.40;;;;;;2338250;55;20957;-68
2023/12/05 01:52:52;;;;;;;1.58;0.50;;;10.90;71.20;;;;;;2332981;54;21539;-70
2023/12/05 01:55:19;;;;;;;1.10;0.47;;;10.90;71.30;;;;;;2546981;53;21710;-71
2023/12/05 01:57:46;;;;;;;1.45;0.52;;;10.90;71.50;;;;;;2560934;53;21099;-69
2023/12/05 02:00:14;;;;;;;1.05;0.40;;;10.90;71.50;;;;;;2549420;53;21035;-71
2023/12/05 02:02:41;;;;;;;1.33;0.50;;;10.90;71.60;;;;;;2580100;53;20945;-69
2023/12/05 02:05:08;;;;;;;1.62;0.50;;;10.90;71.50;;;;;;2584676;53;21751;-71
2023/12/05 02:07:34;;;;;;;1.17;0.47;;;10.90;71.60;;;;;;2338081;54;20945;-68
2023/12/05 02:10:01;;;;;;;1.25;0.60;;;10.90;71.60;;;;;;2336048;53;22106;-69
2023/12/05 02:12:30;;;;;;;1.92;0.85;;;10.90;71.60;;;;;;2323624;54;21406;-71
2023/12/05 02:14:58;;;;;;;1.87;0.50;;;10.90;71.60;;;;;;2575333;53;21047;-70
2023/12/05 02:17:51;;;;;;;1.20;0.50;;;10.80;71.60;;;;;;2342167;54;21056;-69
2023/12/05 02:20:29;;;;;;;1.12;0.40;;;10.90;71.20;;;;;;2321573;54;20944;-71
2023/12/05 02:23:14;;;;;;;1.85;0.60;;;10.90;71.50;;;;;;2508355;54;21522;-71
2023/12/05 02:26:06;;;;;;;1.85;0.60;;;10.90;71.30;;;;;;2306840;54;21386;-67
2023/12/05 02:28:32;;;;;;;1.48;0.57;;;10.80;71.40;;;;;;2306193;54;21218;-70
2023/12/05 02:30:58;;;;;;;1.40;0.60;;;10.80;71.60;;;;;;2542452;53;20999;-71
2023/12/05 02:33:25;;;;;;;2.45;0.88;;;10.80;71.70;;;;;;2302148;54;20960;-69
2023/12/05 02:36:03;;;;;;;1.62;0.60;;;10.80;71.70;;;;;;2306590;54;20968;-71
2023/12/05 02:38:54;;;;;;;1.62;0.57;;;10.80;71.50;;;;;;2539583;53;20947;-70
2023/12/05 02:41:22;;;;;;;1.77;0.60;;;10.80;71.70;;;;;;2527003;53;21017;-68
2023/12/05 02:45:19;;;;;;;1.83;0.77;;;10.80;71.80;;;;;;2311909;54;21020;-68
2023/12/05 02:47:47;;;;;;;1.20;0.40;;;10.80;70.90;;;;;;2321342;54;20986;-70
2023/12/05 02:50:20;;;;;;;1.73;0.60;;;10.80;71.80;;;;;;2546323;53;21261;-68
2023/12/05 02:52:48;;;;;;;1.25;0.60;;;10.80;71.60;;;;;;2294944;54;21295;-69
2023/12/05 02:55:29;;;;;;;3.15;0.50;;;10.80;71.80;;;;;;2537054;53;20983;-71
2023/12/05 02:57:56;;;;;;;1.77;0.50;;;10.90;71.40;;;;;;2568066;53;20966;-69
2023/12/05 03:00:22;;;;;;;1.98;0.57;;;10.80;71.60;;;;;;2573588;53;21642;-68
2023/12/05 03:02:48;;;;;;;1.73;0.60;;;10.80;71.60;;;;;;2540797;54;20929;-69
2023/12/05 03:05:16;;;;;;;0.88;0.43;;;10.80;71.50;;;;;;2526291;53;20957;-68
2023/12/05 03:07:43;;;;;;;1.48;0.75;;;10.80;71.40;;;;;;2291047;55;20927;-68
2023/12/05 03:10:10;;;;;;;2.70;0.50;;;10.80;71.40;;;;;;2527291;53;21083;-68
2023/12/05 03:12:36;;;;;;;1.42;0.60;;;10.80;71.40;;;;;;2338879;54;21028;-68
2023/12/05 03:15:03;;;;;;;2.53;0.60;;;10.80;71.40;;;;;;2582030;53;20915;-70
2023/12/05 03:17:32;;;;;;;2.45;0.57;;;10.80;71.40;;;;;;2336705;54;21379;-70
2023/12/05 03:19:59;;;;;;;1.75;0.43;;;10.80;71.40;;;;;;2583246;53;21055;-68
2023/12/05 03:22:25;;;;;;;1.65;0.50;;;10.80;71.50;;;;;;2579493;53;20895;-71
2023/12/05 03:24:54;;;;;;;2.15;0.60;;;10.80;71.50;;;;;;2583546;53;21055;-69
2023/12/05 03:27:22;;;;;;;2.28;0.57;;;10.80;71.50;;;;;;2582127;53;21005;-69
2023/12/05 03:29:49;;;;;;;1.65;0.60;;;10.80;71.60;;;;;;2583176;53;21275;-69
2023/12/05 03:32:15;;;;;;;1.95;0.73;;;10.80;71.70;;;;;;2583525;53;21880;-68
2023/12/05 03:34:42;;;;;;;1.20;0.45;;;10.80;71.60;;;;;;2555513;53;21031;-70
2023/12/05 03:37:08;;;;;;;1.98;0.70;;;10.80;71.70;;;;;;2311472;54;21055;-69
2023/12/05 03:39:35;;;;;;;1.45;0.45;;;10.80;71.70;;;;;;2543305;54;21012;-69
2023/12/05 03:42:01;;;;;;;1.87;0.60;;;10.80;71.70;;;;;;2545202;54;20944;-68
2023/12/05 03:44:27;;;;;;;2.72;0.57;;;10.80;71.70;;;;;;2299328;54;20997;-70
2023/12/05 03:46:54;;;;;;;2.37;0.60;;;10.80;71.70;;;;;;2540644;53;21030;-69
2023/12/05 03:49:20;;;;;;;2.00;0.70;;;10.80;71.70;;;;;;2545382;54;20925;-67
2023/12/05 03:51:47;;;;;;;1.65;0.57;;;10.80;71.70;;;;;;2307948;54;20957;-70
2023/12/05 03:54:13;;;;;;;1.40;0.60;;;10.80;71.70;;;;;;2545119;53;20940;-70
2023/12/05 03:56:39;;;;;;;2.33;0.60;;;10.80;71.70;;;;;;2309579;54;21484;-68
2023/12/05 03:59:06;;;;;;;0.65;0.30;;;10.80;71.70;;;;;;2526057;53;20965;-67
2023/12/05 04:01:33;;;;;;;1.27;0.45;;;10.80;71.70;;;;;;2307029;54;21653;-69
2023/12/05 04:03:59;;;;;;;1.20;0.40;;;10.80;71.70;;;;;;2308940;54;21475;-68
2023/12/05 04:06:28;;;;;;;2.85;0.52;;;10.80;71.60;;;;;;2307490;54;20951;-70
2023/12/05 04:08:59;;;;;;;2.10;0.40;;;10.90;71.60;;;;;;2317331;54;20931;-68
2023/12/05 04:11:32;;;;;;;2.40;0.60;;;10.90;71.50;;;;;;2317917;54;21949;-71
2023/12/05 04:13:58;;;;;;;;;;;10.90;71.50;;;;;;2322159;54;20954;-68
2023/12/05 04:16:27;;;;;;;1.52;0.50;;;10.90;70.50;;;;;;2307688;54;20055;-70
2023/12/05 04:18:53;;;;;;;1.40;0.32;;;10.90;71.50;;;;;;2572744;53;20962;-71
2023/12/05 04:21:20;;;;;;;4.18;0.55;;;10.90;71.50;;;;;;2316890;54;20981;-71
2023/12/05 04:23:47;;;;;;;2.00;0.50;;;11.00;71.60;;;;;;2558004;53;21725;-69
2023/12/05 04:26:17;;;;;;;1.98;0.50;;;10.90;71.50;;;;;;2330974;55;21494;-69
2023/12/05 04:28:44;;;;;;;1.12;0.50;;;10.90;71.50;;;;;;2568020;53;20991;-71
2023/12/05 04:31:11;;;;;;;2.28;0.45;;;10.90;71.50;;;;;;2549738;53;20952;-69
2023/12/05 04:33:39;;;;;;;2.95;0.80;;;10.90;71.40;;;;;;2535294;53;21865;-71
2023/12/05 04:36:06;;;;;;;2.17;0.60;;;10.90;71.40;;;;;;2308479;54;20914;-68
2023/12/05 04:38:37;;;;;;;2.03;0.60;;;10.90;71.40;;;;;;2571722;53;21392;-69
2023/12/05 04:41:04;;;;;;;1.98;0.70;;;10.90;71.40;;;;;;2540864;53;21730;-69
2023/12/05 04:43:33;;;;;;;2.87;0.80;;;10.90;71.30;;;;;;2317300;54;20943;-68
2023/12/05 04:45:59;;;;;;;1.05;0.40;;;10.90;71.20;;;;;;2574450;53;20998;-68
2023/12/05 04:48:37;;;;;;;2.03;0.60;;;10.80;71.00;;;;;;2330489;54;20964;-71
2023/12/05 04:51:04;;;;;;;1.95;0.57;;;10.80;71.70;;;;;;2574951;53;21551;-69
2023/12/05 04:53:30;;;;;;;4.60;0.70;;;10.80;71.00;;;;;;2330294;55;21270;-67
2023/12/05 04:55:57;;;;;;;1.90;0.40;;;10.80;71.00;;;;;;2330467;55;20998;-68
2023/12/05 04:58:24;;;;;;;2.37;0.55;;;10.80;71.10;;;;;;2574997;53;21326;-70
2023/12/05 05:00:50;;;;;;;5.78;0.73;;;10.80;71.00;;;;;;2331126;55;20938;-68
2023/12/05 05:03:17;;;;;;;2.00;0.55;;;10.80;71.10;;;;;;2331442;55;21015;-69
2023/12/05 05:05:44;;;;;;;1.23;0.40;;;10.80;71.10;;;;;;2574275;53;21030;-67
2023/12/05 05:08:10;;;;;;;1.83;0.60;;;10.80;71.20;;;;;;2575227;53;20922;-70
2023/12/05 05:10:38;;;;;;;1.75;0.47;;;10.80;71.10;;;;;;2574010;53;20915;-70
2023/12/05 05:13:06;;;;;;;2.95;0.73;;;10.80;71.10;;;;;;2573851;53;21066;-68
2023/12/05 05:15:32;;;;;;;3.90;0.73;;;10.80;71.20;;;;;;2574648;53;20954;-68
2023/12/05 05:17:59;;;;;;;1.48;0.50;;;10.80;71.10;;;;;;2575017;53;20970;-68
2023/12/05 05:20:25;;;;;;;3.92;0.90;;;10.80;71.80;;;;;;2330922;55;21069;-68
2023/12/05 05:22:52;;;;;;;1.23;0.60;;;10.80;71.00;;;;;;2330395;55;20942;-68
2023/12/05 05:25:18;;;;;;;4.93;1.02;;;10.80;71.00;;;;;;2330950;54;20920;-68
2023/12/05 05:31:25;;;;;;;2.12;0.60;;;10.80;70.40;;;;;;2573847;53;20998;-66
2023/12/05 05:33:52;;;;;;;3.87;0.55;;;10.80;70.90;;;;;;2306342;54;21804;-65
2023/12/05 05:36:19;;;;;;;4.75;1.00;;;10.80;70.90;;;;;;2331224;54;21922;-67
2023/12/05 05:38:45;;;;;;;3.30;0.57;;;10.80;70.90;;;;;;2330300;55;20931;-67
2023/12/05 05:41:11;;;;;;;2.97;0.90;;;10.80;70.80;;;;;;2332560;54;21201;-66
2023/12/05 05:43:38;;;;;;;1.67;0.52;;;10.70;70.70;;;;;;2327664;55;20982;-66
2023/12/05 05:46:06;;;;;;;2.20;0.52;;;10.70;70.70;;;;;;2562178;53;21261;-68
2023/12/05 05:48:35;;;;;;;3.55;0.62;;;10.70;70.60;;;;;;2555100;53;21002;-66
2023/12/05 05:51:01;;;;;;;2.70;0.60;;;10.70;70.50;;;;;;2574375;53;20927;-66
2023/12/05 05:53:30;;;;;;;2.35;0.60;;;10.70;70.60;;;;;;2574789;53;20982;-67
2023/12/05 05:56:01;;;;;;;1.20;0.50;;;10.70;70.40;;;;;;2574651;53;21108;-66
2023/12/05 05:58:27;;;;;;;2.40;0.70;;;10.70;70.40;;;;;;2308031;54;20921;-68
2023/12/05 06:00:54;;;;;;;1.85;0.65;;;10.60;70.40;;;;;;2569020;53;20919;-67
2023/12/05 06:03:20;;;;;;;2.40;0.60;;;10.60;70.40;;;;;;2574918;53;21764;-67
2023/12/05 06:05:46;;;;;;;3.03;1.00;;;10.60;70.30;;;;;;2574436;53;21013;-66
2023/12/05 06:08:13;;;;;;;2.78;0.57;;;10.60;70.40;;;;;;2575401;53;20918;-66
2023/12/05 06:10:42;;;;;;;2.00;0.60;;;10.50;70.30;;;;;;2574586;53;21018;-68
2023/12/05 06:13:09;;;;;;;0.98;0.43;;;10.50;70.30;;;;;;2575380;53;21042;-67
2023/12/05 06:15:37;;;;;;;2.55;0.60;;;10.50;70.40;;;;;;2330729;55;20946;-67
2023/12/05 06:18:03;;;;;;;1.55;0.55;;;10.50;70.40;;;;;;2574986;53;21460;-68
2023/12/05 06:20:30;;;;;;;2.80;0.77;;;10.50;70.50;;;;;;2547404;53;22046;-66
2023/12/05 06:22:56;;;;;;;3.00;1.00;;;10.50;71.20;;;;;;2569157;53;21034;-67
2023/12/05 06:25:22;;;;;;;2.10;0.70;;;10.50;70.50;;;;;;2574718;53;21886;-66
2023/12/05 06:28:04;;;;;;;2.20;0.62;;;10.40;70.40;;;;;;2574794;53;20942;-68
2023/12/05 06:30:32;;;;;;;2.20;0.80;;;10.40;69.90;;;;;;2330430;54;20942;-66
2023/12/05 06:32:59;;;;;;;2.70;0.77;;;10.40;70.40;;;;;;2568749;53;21071;-67
2023/12/05 06:35:28;;;;;;;3.90;0.80;;;10.40;70.40;;;;;;2330567;55;21037;-67
2023/12/05 06:37:54;;;;;;;3.20;0.77;;;10.40;70.40;;;;;;2574408;53;21763;-66
2023/12/05 06:40:21;;;;;;;1.67;0.68;;;10.40;70.40;;;;;;2573703;53;20938;-67
2023/12/05 06:42:47;;;;;;;2.95;0.80;;;10.40;70.40;;;;;;2567725;53;21051;-66
2023/12/05 06:45:14;;;;;;;2.47;0.80;;;10.40;70.40;;;;;;2303131;54;20953;-66
2023/12/05 06:47:40;;;;;;;4.00;0.90;;;10.40;70.50;;;;;;2564724;53;20939;-67
2023/12/05 06:50:10;;;;;;;3.22;0.80;;;10.40;70.50;;;;;;2574881;53;21018;-67
2023/12/05 06:52:40;;;;;;;2.37;0.80;;;10.30;70.40;;;;;;2574151;53;21471;-67
2023/12/05 06:55:08;;;;;;;2.05;0.73;;;10.30;70.50;;;;;;2323951;54;21650;-67
2023/12/05 06:57:37;;;;;;;4.53;0.90;;;10.30;70.50;;;;;;2553562;53;21034;-68
2023/12/05 07:00:04;;;;;;;3.20;1.40;;;10.30;70.50;;;;;;2331617;55;21009;-67
2023/12/05 07:02:30;;;;;;;4.78;1.55;;;10.30;70.50;;;;;;2330705;54;21029;-67
2023/12/05 07:04:58;;;;;;;4.93;1.55;;;10.30;70.60;;;;;;2307879;54;20963;-67
2023/12/05 07:07:25;;;;;;;5.15;1.90;;;10.30;70.50;;;;;;2574125;53;21034;-67
2023/12/05 07:09:51;;;;;;;5.32;1.67;;;10.30;70.50;;;;;;2330145;55;21015;-68
2023/12/05 07:12:19;;;;;;;4.55;1.20;;;10.30;70.50;;;;;;2331207;54;20923;-66
2023/12/05 07:14:45;;;;;;;3.83;1.05;;;10.30;70.60;;;;;;2330246;54;20982;-67
2023/12/05 07:17:12;;;;;;;2.42;0.82;;;10.30;70.50;;;;;;2575296;53;21031;-66
2023/12/05 07:20:24;;;;;;;3.65;0.90;;;10.20;71.10;;;;;;2331385;55;20974;-67
2023/12/05 07:22:52;;;;;;;4.68;0.90;;;10.20;69.90;;;;;;2296356;55;21008;-66
2023/12/05 07:25:19;;;;;;;4.87;0.90;;;10.30;70.60;;;;;;2563617;53;20958;-67
2023/12/05 07:27:46;;;;;;;2.40;0.70;;;10.20;70.50;;;;;;2331678;54;21020;-67
2023/12/05 07:30:12;;;;;;;2.47;0.70;;;10.20;70.60;;;;;;2331803;55;21116;-67
2023/12/05 07:32:40;;;;;;;2.80;0.80;;;10.20;70.60;;;;;;2331357;54;21348;-68
2023/12/05 07:35:07;;;;;;;1.80;0.80;;;10.20;70.70;;;;;;2575920;53;21400;-66
2023/12/05 07:37:33;;;;;;;5.15;1.00;;;10.20;70.60;;;;;;2574967;53;20991;-67
2023/12/05 07:40:00;;;;;;;4.57;1.45;;;10.20;70.60;;;;;;2331517;54;22082;-67
2023/12/05 07:42:26;;;;;;;4.45;1.23;;;10.20;70.60;;;;;;2331368;54;21294;-67
2023/12/05 07:44:52;;;;;;;3.58;1.17;;;10.20;70.70;;;;;;2330916;55;20976;-65
2023/12/05 07:47:19;;;;;;;4.32;1.83;;;10.20;70.60;;;;;;2332203;55;20998;-68
2023/12/05 07:49:45;;;;;;;3.30;1.00;;;10.20;70.60;;;;;;2331253;55;21013;-67
2023/12/05 07:52:12;;;;;;;4.90;1.20;;;10.20;70.70;;;;;;2575226;53;21079;-67
2023/12/05 07:54:38;;;;;;;3.78;1.10;;;10.20;70.70;;;;;;2331049;55;20930;-67
2023/12/05 07:57:05;;;;;;;3.87;1.00;;;10.20;70.60;;;;;;2574995;53;20962;-66
2023/12/05 07:59:35;;;;;;;3.65;1.02;;;10.20;70.70;;;;;;2331084;55;20954;-67
2023/12/05 08:02:13;;;;;;;4.80;1.20;;;10.20;70.70;;;;;;2575508;53;20958;-66
2023/12/05 08:04:41;;;;;;;3.67;1.10;;;10.20;70.30;;;;;;2331604;55;21022;-67
2023/12/05 08:07:08;;;;;;;5.32;1.70;;;10.20;70.70;;;;;;2331086;55;21022;-67
2023/12/05 08:09:34;;;;;;;3.67;1.25;;;10.20;70.70;;;;;;2320102;54;21945;-66
2023/12/05 08:12:01;;;;;;;2.37;0.90;;;10.20;70.70;;;;;;2319814;54;21120;-67
2023/12/05 08:14:27;;;;;;;4.25;1.08;;;10.20;70.70;;;;;;2575434;53;21401;-66
2023/12/05 08:16:57;;;;;;;3.20;0.98;;;10.20;70.70;;;;;;2331461;55;21079;-67
2023/12/05 08:19:23;;;;;;;3.33;0.80;;;10.20;70.70;;;;;;2542669;53;20959;-66
2023/12/05 08:21:50;;;;;;;3.53;0.90;;;10.20;70.70;;;;;;2331772;54;20934;-67
2023/12/05 08:24:16;;;;;;;3.35;1.23;;;10.20;70.80;;;;;;2575676;53;21398;-67
2023/12/05 08:26:43;;;;;;;2.83;0.65;;;10.20;70.80;;;;;;2574961;53;21350;-66
2023/12/05 08:29:09;;;;;;;1.67;0.60;;;10.20;70.70;;;;;;2330940;54;21022;-66
2023/12/05 08:31:36;;;;;;;3.65;1.35;;;10.20;70.70;;;;;;2331581;55;21046;-67
2023/12/05 08:34:03;;;;;;;3.67;1.00;;;10.20;70.70;;;;;;2575062;53;21108;-66
2023/12/05 08:36:31;;;;;;;3.12;1.20;;;10.20;70.70;;;;;;2331250;55;20982;-66
2023/12/05 08:38:59;;;;;;;3.95;1.45;;;10.20;70.70;;;;;;2320951;54;21499;-67
2023/12/05 08:41:25;;;;;;;4.10;1.58;;;10.30;70.80;;;;;;2318599;54;20954;-67
2023/12/05 08:43:51;;;;;;;3.47;1.20;;;10.30;70.80;;;;;;2331252;55;20971;-67
2023/12/05 08:46:18;;;;;;;2.72;0.90;;;10.30;70.90;;;;;;2574990;53;21050;-67
2023/12/05 08:48:44;;;;;;;3.65;0.70;;;10.30;70.80;;;;;;2574262;53;20955;-67
2023/12/05 08:51:12;;;;;;;3.80;1.60;;;10.30;71.00;;;;;;2324272;54;20975;-67
2023/12/05 08:53:42;;;;;;;5.25;1.40;;;10.30;70.90;;;;;;2314374;54;20958;-67
2023/12/05 08:56:09;;;;;;;3.30;1.17;;;10.30;71.00;;;;;;2575542;53;20950;-67
2023/12/05 08:58:36;;;;;;;3.10;1.20;;;10.40;71.00;;;;;;2331210;55;21460;-66
2023/12/05 09:01:03;;;;;;;2.53;0.90;;;10.40;71.10;;;;;;2567105;53;20975;-67
2023/12/05 09:03:30;;;;;;;2.75;0.90;;;10.40;71.20;;;;;;2312038;54;20954;-65
2023/12/05 09:05:57;;;;;;;5.10;1.27;;;10.40;71.20;;;;;;2331851;55;20975;-66
2023/12/05 09:08:26;;;;;;;6.30;1.50;;;10.50;71.20;;;;;;2574826;53;21314;-67
2023/12/05 09:10:55;;;;;;;2.53;0.90;;;10.50;71.10;;;;;;2552906;53;20974;-67
2023/12/05 09:13:21;;;;;;;3.80;1.12;;;10.50;71.00;;;;;;2323702;54;20923;-67
2023/12/05 09:15:48;;;;;;;5.45;1.48;;;10.50;71.00;;;;;;2576049;53;20998;-67
2023/12/05 09:18:14;;;;;;;4.47;1.40;;;10.60;71.10;;;;;;2572337;53;20950;-67
2023/12/05 09:20:41;;;;;;;7.82;2.85;;;10.60;71.10;;;;;;2330109;54;20970;-67
2023/12/05 09:23:07;;;;;;;5.43;2.08;;;10.60;71.00;;;;;;2330888;55;20973;-67
2023/12/05 09:25:34;;;;;;;4.95;1.60;;;10.60;71.00;;;;;;2575750;53;20946;-66
2023/12/05 09:28:02;;;;;;;4.03;1.30;;;10.70;71.10;;;;;;2321644;54;20932;-67
2023/12/05 09:30:28;;;;;;;4.12;1.48;;;10.70;71.00;;;;;;2559431;53;21097;-67
2023/12/05 09:32:54;;;;;;;5.30;2.05;;;10.70;70.80;;;;;;2330740;55;20939;-66
2023/12/05 09:35:21;;;;;;;4.68;1.70;;;10.70;70.70;;;;;;2330877;55;20950;-68
2023/12/05 09:37:49;;;;;;;5.78;2.17;;;10.70;70.70;;;;;;2331733;55;21274;-66
2023/12/05 09:40:15;;;;;;;5.32;2.25;;;10.70;70.60;;;;;;2331150;55;20959;-67
2023/12/05 09:42:42;;;;;;;5.05;1.55;;;10.70;70.50;;;;;;2575944;53;21997;-67
2023/12/05 09:45:13;;;;;;;3.05;1.00;;;10.80;70.50;;;;;;2575470;53;21009;-67
2023/12/05 09:47:40;;;;;;;3.22;1.00;;;10.80;70.50;;;;;;2327564;54;21845;-67
2023/12/05 09:50:26;;;;;;;2.80;0.85;;;10.80;70.50;;;;;;2312304;54;20939;-66
2023/12/05 09:52:53;;;;;;;1.70;0.60;;;10.80;70.00;;;;;;2331492;55;20974;-66
2023/12/05 09:55:19;;;;;;;2.30;0.70;;;10.80;70.70;;;;;;2331334;54;22337;-67
2023/12/05 09:57:47;;;;;;;2.40;0.70;;;10.80;70.70;;;;;;2331966;55;21002;-67
2023/12/05 10:00:14;;;;;;;3.78;0.77;;;10.80;70.70;;;;;;2575148;53;21007;-67
2023/12/05 10:02:40;;;;;;;2.28;0.75;;;10.80;70.70;;;;;;2575440;53;20962;-67
2023/12/05 10:05:08;;;;;;;3.35;0.80;;;10.80;70.50;;;;;;2330918;54;21014;-67
2023/12/05 10:07:35;;;;;;;2.83;0.80;;;10.80;70.40;;;;;;2331695;55;20939;-67
2023/12/05 10:10:04;;;;;;;1.27;0.50;;;10.90;70.50;;;;;;2308383;54;21411;-67
2023/12/05 10:12:30;;;;;;;1.75;0.60;;;10.80;70.40;;;;;;2547071;54;21269;-67
2023/12/05 10:14:56;;;;;;;2.55;0.55;;;10.80;70.30;;;;;;2572425;53;21484;-66
2023/12/05 10:17:26;;;;;;;2.75;0.70;;;10.90;70.50;;;;;;2561927;53;20909;-68
2023/12/05 10:19:52;;;;;;;1.85;0.50;;;10.90;70.40;;;;;;2299305;55;21864;-67
2023/12/05 10:22:18;;;;;;;2.30;0.50;;;10.90;70.50;;;;;;2534304;54;21446;-67
2023/12/05 10:24:48;;;;;;;1.90;0.60;;;10.90;70.50;;;;;;2308704;54;20960;-66
2023/12/05 10:27:15;;;;;;;2.58;0.60;;;10.90;70.50;;;;;;2294640;54;21032;-66
2023/12/05 10:29:45;;;;;;;1.83;0.50;;;10.90;70.50;;;;;;2542303;53;20964;-67
2023/12/05 10:32:12;;;;;;;3.28;0.88;;;10.90;70.50;;;;;;2541103;53;20988;-67
2023/12/05 10:34:51;;;;;;;2.78;0.90;;;10.90;70.40;;;;;;2534737;53;21588;-68
2023/12/05 10:37:24;;;;;;;4.25;0.95;;;10.90;70.10;;;;;;2527998;53;20965;-67
2023/12/05 10:39:51;;;;;;;4.72;1.10;;;10.90;70.40;;;;;;2548125;53;20984;-67
2023/12/05 10:42:19;;;;;;;3.87;0.80;;;11.00;71.00;;;;;;2309635;54;21297;-67
2023/12/05 10:44:45;;;;;;;2.75;0.90;;;11.00;71.40;;;;;;2576218;53;20943;-66
2023/12/05 10:47:12;;;;;;;2.70;0.82;;;11.10;71.80;;;;;;2321536;54;21044;-67
2023/12/05 10:49:41;;;;;;;2.80;0.70;;;11.10;71.90;;;;;;2318662;54;21886;-66
2023/12/05 10:52:13;;;;;;;4.65;0.98;;;11.20;72.10;;;;;;2574987;53;20967;-67
2023/12/05 10:54:40;;;;;;;2.55;0.75;;;11.30;72.40;;;;;;2576031;53;20971;-67
2023/12/05 10:57:09;;;;;;;2.65;0.82;;;11.40;71.90;;;;;;2547641;53;21458;-66
2023/12/05 10:59:40;;;;;;;4.00;1.02;;;11.40;71.40;;;;;;2547947;54;21304;-66
2023/12/05 11:02:13;;;;;;;4.80;1.70;;;11.50;71.00;;;;;;2547698;53;20945;-66
2023/12/05 11:04:43;;;;;;;4.95;1.20;;;11.50;70.50;;;;;;2308683;55;20980;-67
2023/12/05 11:07:09;;;;;;;7.18;2.40;;;11.50;70.80;;;;;;2517485;54;21065;-67
2023/12/05 11:09:39;;;;;;;6.72;2.40;;;11.50;70.60;;;;;;2308947;54;21650;-67
2023/12/05 11:12:06;;;;;;;6.25;2.25;;;11.50;70.50;;;;;;2304234;54;20981;-66
2023/12/05 11:14:43;;;;;;;4.47;1.85;;;11.50;70.40;;;;;;2547740;53;20945;-66
2023/12/05 11:17:12;;;;;;;5.60;1.77;;;11.60;69.90;;;;;;2309288;55;20960;-67
2023/12/05 11:22:29;;;;;;;5.65;1.60;;;11.60;70.00;;;;;;2309050;54;21011;-65
2023/12/05 11:25:16;;;;;;;4.68;1.30;;;11.60;69.40;;;;;;2548161;53;20954;-67
2023/12/05 11:28:35;;;;;;;3.45;1.05;;;11.60;69.60;;;;;;2579392;53;20976;-67
2023/12/05 11:34:03;;;;;;;3.55;0.95;;;11.60;68.70;;;;;;2587546;53;21799;-66
2023/12/05 11:36:51;;;;;;;3.60;0.90;;;11.60;68.60;;;;;;2339376;55;21933;-67
2023/12/05 11:39:17;;;;;;;4.85;1.08;;;11.70;70.10;;;;;;2575748;53;20979;-65
2023/12/05 11:42:10;;;;;;;4.80;1.20;;;11.60;70.10;;;;;;2340192;55;20948;-66
2023/12/05 11:44:40;;;;;;;7.57;1.05;;;11.60;69.20;;;;;;2586441;53;21415;-67
2023/12/05 11:47:40;;;;;;;4.78;1.35;;;11.60;69.70;;;;;;2340780;55;21154;-66
2023/12/05 11:50:08;;;;;;;4.45;1.10;;;11.60;68.80;;;;;;2557378;53;20926;-67
2023/12/05 11:52:39;;;;;;;2.60;0.95;;;11.60;70.10;;;;;;2338938;54;21016;-66
2023/12/05 11:55:05;;;;;;;4.82;1.10;;;11.60;70.00;;;;;;2587156;53;21051;-66
2023/12/05 11:57:33;;;;;;;5.22;1.60;;;11.60;69.90;;;;;;2572506;53;20971;-67
2023/12/05 11:59:59;;;;;;;4.80;1.33;;;11.70;69.90;;;;;;2567787;53;21494;-67
2023/12/05 12:02:59;;;;;;;6.12;1.20;;;11.70;69.90;;;;;;2340058;54;20977;-66
2023/12/05 12:05:25;;;;;;;2.72;1.05;;;11.70;68.50;;;;;;2340405;55;21028;-67
2023/12/05 12:07:53;;;;;;;5.18;1.50;;;11.70;70.00;;;;;;2586392;53;21036;-67
2023/12/05 12:10:26;;;;;;;4.70;1.37;;;11.70;70.00;;;;;;2339277;54;20964;-66
2023/12/05 12:12:52;;;;;;;6.22;2.05;;;11.70;70.10;;;;;;2586977;53;21036;-66
2023/12/05 12:15:21;;;;;;;6.47;2.42;;;11.70;69.60;;;;;;2340565;54;20912;-66
2023/12/05 12:17:48;;;;;;;6.82;1.77;;;11.70;69.50;;;;;;2587216;53;21272;-67
2023/12/05 12:20:16;;;;;;;6.20;1.42;;;11.70;69.40;;;;;;2554922;53;20975;-66
2023/12/05 12:22:45;;;;;;;5.82;1.30;;;11.70;69.30;;;;;;2317784;54;21011;-66
2023/12/05 12:25:17;;;;;;;6.03;1.00;;;11.70;69.30;;;;;;2340421;55;20973;-66
2023/12/05 12:27:44;;;;;;;3.00;0.82;;;11.70;69.00;;;;;;2587366;53;21518;-66
2023/12/05 12:30:15;;;;;;;5.43;1.23;;;11.70;69.20;;;;;;2586715;53;20960;-68
2023/12/05 12:32:58;;;;;;;5.40;1.05;;;11.70;69.00;;;;;;2309336;54;20977;-66
2023/12/05 12:35:24;;;;;;;5.57;1.40;;;11.70;68.00;;;;;;2546975;54;21026;-66
2023/12/05 12:37:51;;;;;;;2.80;1.05;;;11.60;68.70;;;;;;2307540;54;20984;-67
2023/12/05 12:40:18;;;;;;;5.40;1.42;;;11.60;68.80;;;;;;2304196;54;20929;-66
2023/12/05 12:42:47;;;;;;;2.87;0.90;;;11.60;68.90;;;;;;2307815;54;21386;-66
2023/12/05 12:45:13;;;;;;;5.28;1.20;;;11.60;68.90;;;;;;2536377;54;20965;-68
2023/12/05 12:47:41;;;;;;;4.05;1.27;;;11.60;68.90;;;;;;2547733;54;22044;-66
2023/12/05 12:50:08;;;;;;;6.95;1.95;;;11.60;68.80;;;;;;2548191;54;20982;-66
2023/12/05 12:52:35;;;;;;;5.40;1.67;;;11.60;68.70;;;;;;2308399;56;21005;-67
2023/12/05 12:55:02;;;;;;;4.55;1.40;;;11.60;68.80;;;;;;2308797;54;20930;-67
2023/12/05 12:57:28;;;;;;;3.58;1.15;;;11.50;68.60;;;;;;2547073;54;21430;-67
2023/12/05 12:59:56;;;;;;;3.72;1.10;;;11.50;68.70;;;;;;2547712;54;20932;-66
2023/12/05 13:02:24;;;;;;;3.55;1.17;;;11.50;68.70;;;;;;2541185;53;20994;-67
2023/12/05 13:04:54;;;;;;;6.00;1.70;;;11.50;68.70;;;;;;2542602;54;20945;-67
2023/12/05 13:07:25;;;;;;;6.45;2.67;;;11.50;68.60;;;;;;2547456;54;20937;-66